Terminal Aerodrome Forecast
Issued by NWS Buffalo, NY

Home | Current Version | Previous Version | Text Only | Print | Product List | Glossary On
Versions: 1 2 3 4 5 6 7 8 9 10 11 12 13 14 15 16 17 18 19 20 21 22
000
FTUS41 KBUF 211500 AAA
TAFROC
TAF AMD
KROC 211508Z 2115/2212 26004KT P6SM BKN070
     FM211700 VRB03KT P6SM SCT080
     FM212200 00000KT P6SM BKN050 BKN250
     FM221000 15004KT P6SM BKN120=

USA.gov is the U.S. government's official web portal to all federal, state and local government web resources and services.